createdAt,value
2018-12-22T00:01:43.075Z,1.20
2018-12-22T00:04:10.589Z,1.20
2018-12-22T00:06:38.063Z,1.17
2018-12-22T00:09:05.799Z,1.10
2018-12-22T00:11:33.289Z,1.10
2018-12-22T00:14:00.901Z,1.43
2018-12-22T00:16:28.407Z,1.60
2018-12-22T00:18:55.951Z,1.23
2018-12-22T00:21:23.467Z,1.67
2018-12-22T00:23:51.008Z,1.50
2018-12-22T00:26:18.493Z,1.50
2018-12-22T00:28:46.947Z,1.47
2018-12-22T00:31:14.425Z,1.13
2018-12-22T00:33:42.679Z,1.20
2018-12-22T00:36:10.167Z,1.13
2018-12-22T00:38:37.742Z,1.20
2018-12-22T00:41:05.221Z,1.10
2018-12-22T00:43:32.813Z,1.23
2018-12-22T00:46:00.314Z,1.20
2018-12-22T00:48:27.818Z,1.10
2018-12-22T00:50:55.303Z,0.80
2018-12-22T00:53:22.827Z,1.13
2018-12-22T00:55:51.042Z,1.10
2018-12-22T00:58:18.548Z,1.40
2018-12-22T01:00:46.036Z,1.17
2018-12-22T01:03:13.514Z,1.20
2018-12-22T01:05:41.071Z,1.30
2018-12-22T01:08:08.616Z,1.17
2018-12-22T01:10:36.174Z,1.10
2018-12-22T01:13:03.648Z,1.00
2018-12-22T01:15:31.599Z,1.07
2018-12-22T01:17:59.088Z,1.10
2018-12-22T01:20:26.627Z,0.80
2018-12-22T01:22:54.706Z,1.00
2018-12-22T01:25:22.171Z,1.30
2018-12-22T01:27:49.657Z,1.10
2018-12-22T01:30:17.229Z,1.10
2018-12-22T01:32:44.719Z,1.00
2018-12-22T01:35:12.178Z,0.90
2018-12-22T01:37:39.667Z,0.90
2018-12-22T01:40:07.377Z,1.30
2018-12-22T01:42:34.864Z,1.07
2018-12-22T01:45:02.320Z,0.87
2018-12-22T01:47:29.847Z,1.00
2018-12-22T01:49:57.531Z,1.00
2018-12-22T01:52:25.007Z,0.80
2018-12-22T01:54:52.482Z,1.10
2018-12-22T01:57:20.107Z,1.00
2018-12-22T01:59:47.909Z,1.00
2018-12-22T02:02:15.381Z,1.20
2018-12-22T02:04:42.866Z,0.87
2018-12-22T02:07:10.453Z,1.00
2018-12-22T02:09:38.009Z,1.00
2018-12-22T02:12:05.494Z,0.73
2018-12-22T02:14:33.227Z,0.97
2018-12-22T02:17:00.758Z,0.80
2018-12-22T02:19:28.218Z,0.80
2018-12-22T02:21:55.712Z,0.80
2018-12-22T02:24:23.175Z,1.00
2018-12-22T02:26:50.717Z,0.87
2018-12-22T02:29:18.237Z,0.70
2018-12-22T02:31:45.734Z,0.60
2018-12-22T02:34:13.191Z,0.97
2018-12-22T02:36:40.680Z,0.90
2018-12-22T02:39:08.158Z,0.90
2018-12-22T02:41:35.762Z,0.90
2018-12-22T02:44:03.251Z,1.03
2018-12-22T02:46:30.724Z,1.10
2018-12-22T02:48:58.238Z,0.83
2018-12-22T02:51:25.693Z,1.00
2018-12-22T02:53:53.177Z,1.00
2018-12-22T02:56:21.063Z,0.80
2018-12-22T02:58:48.536Z,1.37
2018-12-22T03:01:16.032Z,0.90
2018-12-22T03:03:43.506Z,1.10
2018-12-22T03:06:10.981Z,1.17
2018-12-22T03:08:38.794Z,0.87
2018-12-22T03:11:06.357Z,1.20
2018-12-22T03:13:34.617Z,1.00
2018-12-22T03:16:02.092Z,1.40
2018-12-22T03:18:29.845Z,1.40
2018-12-22T03:20:57.316Z,1.20
2018-12-22T03:23:24.802Z,1.20
2018-12-22T03:25:52.257Z,1.40
2018-12-22T03:28:19.746Z,1.67
2018-12-22T03:30:47.262Z,1.00
2018-12-22T03:33:14.799Z,1.30
2018-12-22T03:35:42.353Z,1.57
2018-12-22T03:38:09.835Z,1.30
2018-12-22T03:40:37.294Z,1.60
2018-12-22T03:43:04.774Z,1.27
2018-12-22T03:45:32.304Z,1.20
2018-12-22T03:47:59.862Z,1.20
2018-12-22T03:50:27.343Z,1.33
2018-12-22T03:52:54.810Z,1.30
2018-12-22T03:55:22.319Z,1.17
2018-12-22T03:57:49.888Z,1.50
2018-12-22T04:00:17.551Z,1.50
2018-12-22T04:02:45.033Z,1.20
2018-12-22T04:05:12.519Z,1.50
2018-12-22T04:07:39.985Z,1.40
2018-12-22T04:10:07.623Z,1.20
2018-12-22T04:12:35.215Z,1.30
2018-12-22T04:15:02.813Z,1.30
2018-12-22T04:17:30.276Z,1.50
2018-12-22T04:19:57.801Z,1.30
2018-12-22T04:22:25.263Z,1.67
2018-12-22T04:24:54.216Z,1.60
2018-12-22T04:27:21.698Z,1.20
2018-12-22T04:29:49.310Z,1.60
2018-12-22T04:32:16.778Z,1.40
2018-12-22T04:34:44.264Z,1.30
2018-12-22T04:37:11.733Z,1.40
2018-12-22T04:39:39.390Z,1.57
2018-12-22T04:42:06.876Z,1.27
2018-12-22T04:44:34.330Z,1.33
2018-12-22T04:47:01.818Z,1.53
2018-12-22T04:49:29.336Z,1.20
2018-12-22T04:51:56.916Z,1.27
2018-12-22T04:54:24.370Z,1.27
2018-12-22T04:56:51.847Z,1.13
2018-12-22T04:59:19.313Z,1.40
2018-12-22T05:01:46.803Z,1.67
2018-12-22T05:04:14.272Z,1.30
2018-12-22T05:06:42.639Z,1.40
2018-12-22T05:09:10.129Z,1.67
2018-12-22T05:11:37.698Z,1.47
2018-12-22T05:14:05.255Z,1.00
2018-12-22T05:16:32.817Z,1.43
2018-12-22T05:19:00.284Z,1.23
2018-12-22T05:21:27.803Z,1.17
2018-12-22T05:23:55.268Z,0.90
2018-12-22T05:26:23.150Z,1.20
2018-12-22T05:28:50.626Z,1.23
2018-12-22T05:31:18.274Z,1.00
2018-12-22T05:33:46.526Z,0.70
2018-12-22T05:36:14.930Z,0.80
2018-12-22T05:38:42.490Z,0.90
2018-12-22T05:41:10.046Z,0.80
2018-12-22T05:43:37.570Z,1.00
2018-12-22T05:46:05.341Z,0.80
2018-12-22T05:48:32.816Z,0.77
2018-12-22T05:51:00.412Z,0.77
2018-12-22T05:53:27.888Z,0.80
2018-12-22T05:55:55.377Z,1.00
2018-12-22T05:58:22.853Z,1.13
2018-12-22T06:00:50.419Z,0.90
2018-12-22T06:03:17.977Z,1.10
2018-12-22T06:05:45.535Z,0.83
2018-12-22T06:08:13.013Z,0.63
2018-12-22T06:10:40.483Z,0.90
2018-12-22T06:13:07.964Z,2.50
2018-12-22T06:15:35.447Z,1.00
2018-12-22T06:18:02.929Z,0.57
2018-12-22T06:20:30.507Z,0.67
2018-12-22T06:22:57.991Z,0.70
2018-12-22T06:25:25.455Z,0.80
2018-12-22T06:27:52.951Z,0.70
2018-12-22T06:30:20.418Z,0.60
2018-12-22T06:32:47.938Z,0.90
2018-12-22T06:35:15.410Z,0.50
2018-12-22T06:37:42.908Z,0.63
2018-12-22T06:40:10.417Z,0.60
2018-12-22T06:42:37.976Z,0.70
2018-12-22T06:45:05.588Z,0.70
2018-12-22T06:47:33.101Z,0.60
2018-12-22T06:50:00.659Z,0.70
2018-12-22T06:52:28.145Z,0.70
2018-12-22T06:54:56.105Z,0.80
2018-12-22T06:57:23.649Z,0.57
2018-12-22T06:59:52.076Z,0.77
2018-12-22T07:02:19.886Z,0.67
2018-12-22T07:04:47.346Z,0.83
2018-12-22T07:07:14.826Z,0.70
2018-12-22T07:09:42.386Z,0.87
2018-12-22T07:12:09.852Z,0.87
2018-12-22T07:14:37.403Z,1.10
2018-12-22T07:17:04.860Z,0.70
2018-12-22T07:19:33.111Z,0.60
2018-12-22T07:22:00.562Z,0.70
2018-12-22T07:24:28.034Z,0.63
2018-12-22T07:26:55.606Z,1.00
2018-12-22T07:29:23.138Z,0.90
2018-12-22T07:31:50.697Z,0.70
2018-12-22T07:34:18.256Z,0.80
2018-12-22T07:36:45.732Z,1.10
2018-12-22T07:39:13.216Z,0.90
2018-12-22T07:41:40.757Z,0.90
2018-12-22T07:44:08.291Z,0.97
2018-12-22T07:46:35.768Z,0.87
2018-12-22T07:49:03.241Z,1.20
2018-12-22T07:51:30.723Z,0.80
2018-12-22T07:53:58.461Z,1.10
2018-12-22T07:56:25.915Z,0.80
2018-12-22T07:58:53.917Z,1.03
2018-12-22T08:01:21.456Z,0.60
2018-12-22T08:03:48.997Z,1.50
2018-12-22T08:06:16.559Z,0.90
2018-12-22T08:08:44.117Z,0.90
2018-12-22T08:11:11.591Z,0.90
2018-12-22T08:13:39.543Z,1.10
2018-12-22T08:16:07.106Z,0.80
2018-12-22T08:18:34.662Z,0.80
2018-12-22T08:21:02.216Z,0.80
2018-12-22T08:23:29.783Z,1.20
2018-12-22T08:25:57.438Z,0.90
2018-12-22T08:28:24.907Z,0.90
2018-12-22T08:30:52.868Z,0.90
2018-12-22T08:33:20.346Z,0.90
2018-12-22T08:35:47.985Z,1.20
2018-12-22T08:38:16.252Z,0.70
2018-12-22T08:40:43.747Z,1.10
2018-12-22T08:43:11.236Z,1.17
2018-12-22T08:45:38.731Z,1.07
2018-12-22T08:48:07.116Z,1.00
2018-12-22T08:50:34.608Z,0.90
2018-12-22T08:53:02.074Z,0.83
2018-12-22T08:55:29.682Z,0.87
2018-12-22T08:57:57.245Z,1.23
2018-12-22T09:00:24.729Z,0.60
2018-12-22T09:02:52.232Z,0.80
2018-12-22T09:05:20.103Z,0.70
2018-12-22T09:07:47.804Z,0.90
2018-12-22T09:10:15.313Z,1.20
2018-12-22T09:12:43.591Z,1.03
2018-12-22T09:15:11.063Z,1.23
2018-12-22T09:17:38.852Z,1.00
2018-12-22T09:20:08.248Z,1.20
2018-12-22T09:22:35.711Z,1.33
2018-12-22T09:25:03.259Z,1.13
2018-12-22T09:27:30.913Z,1.60
2018-12-22T09:29:58.382Z,1.40
2018-12-22T09:32:25.871Z,1.20
2018-12-22T09:34:53.367Z,1.43
2018-12-22T09:37:20.855Z,1.10
2018-12-22T09:39:48.751Z,1.00
2018-12-22T09:42:16.231Z,0.90
2018-12-22T09:44:43.731Z,1.10
2018-12-22T09:47:11.295Z,0.87
2018-12-22T09:49:38.755Z,1.40
2018-12-22T09:52:06.419Z,1.40
2018-12-22T09:54:34.600Z,1.20
2018-12-22T09:57:02.142Z,1.10
2018-12-22T09:59:29.703Z,1.50
2018-12-22T10:01:57.262Z,1.43
2018-12-22T10:04:24.714Z,1.30
2018-12-22T10:06:52.223Z,1.57
2018-12-22T10:09:19.734Z,1.20
2018-12-22T10:11:47.211Z,1.10
2018-12-22T10:14:14.676Z,1.00
2018-12-22T10:16:42.161Z,1.30
2018-12-22T10:19:09.647Z,1.27
2018-12-22T10:21:37.120Z,1.33
2018-12-22T10:24:04.595Z,1.30
2018-12-22T10:26:32.057Z,1.20
2018-12-22T10:28:59.554Z,1.03
2018-12-22T10:31:27.014Z,1.97
2018-12-22T10:33:54.602Z,1.20
2018-12-22T10:36:22.049Z,1.30
2018-12-22T10:38:49.543Z,1.33
2018-12-22T10:41:17.002Z,1.07
2018-12-22T10:43:44.501Z,1.40
2018-12-22T10:46:11.994Z,1.30
2018-12-22T10:48:39.517Z,1.07
2018-12-22T10:51:06.998Z,1.03
2018-12-22T10:53:34.673Z,1.37
2018-12-22T10:56:03.041Z,1.40
2018-12-22T10:58:30.515Z,1.50
2018-12-22T11:00:57.998Z,1.83
2018-12-22T11:03:25.743Z,1.60
2018-12-22T11:05:53.294Z,3.63
2018-12-22T11:08:20.785Z,1.80
2018-12-22T11:10:48.306Z,1.30
2018-12-22T11:13:16.285Z,1.30
2018-12-22T11:15:43.835Z,1.40
2018-12-22T11:18:11.325Z,1.67
2018-12-22T11:20:39.544Z,1.37
2018-12-22T11:23:07.023Z,1.10
2018-12-22T11:25:35.099Z,1.23
2018-12-22T11:28:02.564Z,1.20
2018-12-22T11:30:30.142Z,0.87
2018-12-22T11:32:57.603Z,1.20
2018-12-22T11:35:25.820Z,1.10
2018-12-22T11:37:53.289Z,1.10
2018-12-22T11:40:20.769Z,1.10
2018-12-22T11:42:48.657Z,1.27
2018-12-22T11:45:16.150Z,1.07
2018-12-22T11:47:46.176Z,1.23
2018-12-22T11:50:19.392Z,1.27
2018-12-22T11:52:46.935Z,1.27
2018-12-22T11:55:14.575Z,1.20
2018-12-22T11:57:42.668Z,1.20
2018-12-22T12:00:10.534Z,1.63
2018-12-22T12:02:38.003Z,1.37
2018-12-22T12:05:08.377Z,1.47
2018-12-22T12:07:35.973Z,1.23
2018-12-22T12:10:05.063Z,1.40
2018-12-22T12:12:32.826Z,1.20
2018-12-22T12:15:00.413Z,1.00
2018-12-22T12:17:31.831Z,1.40
2018-12-22T12:19:59.319Z,1.47
2018-12-22T12:22:27.566Z,1.90
2018-12-22T12:24:55.072Z,1.80
2018-12-22T12:27:22.790Z,2.10
2018-12-22T12:29:50.263Z,2.10
2018-12-22T12:32:19.644Z,2.07
2018-12-22T12:34:47.242Z,1.90
2018-12-22T12:37:14.702Z,1.70
2018-12-22T12:39:42.169Z,1.67
2018-12-22T12:42:09.678Z,1.57
2018-12-22T12:44:38.849Z,1.43
2018-12-22T12:47:06.386Z,2.50
2018-12-22T12:49:34.697Z,1.30
2018-12-22T12:52:02.193Z,1.70
2018-12-22T12:54:29.757Z,1.23
2018-12-22T12:56:57.276Z,1.23
2018-12-22T12:59:24.844Z,2.47
2018-12-22T13:02:00.750Z,1.50
2018-12-22T13:04:23.058Z,1.57
2018-12-22T13:06:50.543Z,1.30
2018-12-22T13:09:18.644Z,2.23
2018-12-22T13:11:46.220Z,1.73
2018-12-22T13:14:13.946Z,1.23
2018-12-22T13:16:42.325Z,1.50
2018-12-22T13:19:09.797Z,1.63
2018-12-22T13:21:37.313Z,1.70
2018-12-22T13:24:04.781Z,1.60
2018-12-22T13:26:36.797Z,1.33
2018-12-22T13:29:01.793Z,2.37
2018-12-22T13:31:29.985Z,4.57
2018-12-22T13:33:58.375Z,1.50
2018-12-22T13:36:34.331Z,1.20
2018-12-22T13:38:55.453Z,1.00
2018-12-22T13:41:22.929Z,1.30
2018-12-22T13:43:50.408Z,1.40
2018-12-22T13:46:17.911Z,1.20
2018-12-22T13:48:45.855Z,1.70
2018-12-22T13:51:13.761Z,1.17
2018-12-22T13:53:41.421Z,1.30
2018-12-22T13:56:09.511Z,1.30
2018-12-22T13:58:37.054Z,1.67
2018-12-22T14:01:04.812Z,1.83
2018-12-22T14:03:32.338Z,2.80
2018-12-22T14:05:59.831Z,1.30
2018-12-22T14:08:27.333Z,2.53
2018-12-22T14:10:54.813Z,2.67
2018-12-22T14:13:23.123Z,1.60
2018-12-22T14:15:50.755Z,1.40
2018-12-22T14:18:23.146Z,1.23
2018-12-22T14:20:50.641Z,1.43
2018-12-22T14:23:19.388Z,1.30
2018-12-22T14:25:46.940Z,1.20
2018-12-22T14:28:14.640Z,1.30
2018-12-22T14:30:42.127Z,0.80
2018-12-22T14:33:09.725Z,1.33
2018-12-22T14:35:37.547Z,1.10
2018-12-22T14:38:05.136Z,1.60
2018-12-22T14:40:32.902Z,1.20
2018-12-22T14:43:00.430Z,1.30
2018-12-22T14:45:27.946Z,1.57
2018-12-22T14:47:55.506Z,1.60
2018-12-22T14:50:23.075Z,1.40
2018-12-22T14:52:50.601Z,1.17
2018-12-22T14:55:18.102Z,1.73
2018-12-22T14:57:49.794Z,3.80
2018-12-22T15:00:17.274Z,1.43
2018-12-22T15:02:44.762Z,1.30
2018-12-22T15:05:12.316Z,1.17
2018-12-22T15:07:40.238Z,1.37
2018-12-22T15:10:09.637Z,1.30
2018-12-22T15:12:37.111Z,1.27
2018-12-22T15:15:09.195Z,1.20
2018-12-22T15:17:37.249Z,1.10
2018-12-22T15:23:10.926Z,2.53
2018-12-22T15:25:38.428Z,2.23
2018-12-22T15:28:06.618Z,1.20
2018-12-22T15:30:34.200Z,1.20
2018-12-22T15:33:01.659Z,1.33
2018-12-22T15:35:29.236Z,1.10
2018-12-22T15:37:58.568Z,1.40
2018-12-22T15:40:26.334Z,1.60
2018-12-22T15:42:53.921Z,1.20
2018-12-22T15:45:21.467Z,1.07
2018-12-22T15:47:48.936Z,0.97
2018-12-22T15:50:24.672Z,1.33
2018-12-22T15:52:53.079Z,1.00
2018-12-22T15:55:20.552Z,1.37
2018-12-22T15:57:48.022Z,1.33
2018-12-22T16:00:15.503Z,1.27
2018-12-22T16:02:42.977Z,1.20
2018-12-22T16:05:11.416Z,1.13
2018-12-22T16:07:41.098Z,1.23
2018-12-22T16:10:14.123Z,1.40
2018-12-22T16:12:41.601Z,1.73
2018-12-22T16:15:17.220Z,1.63
2018-12-22T16:17:44.778Z,1.63
2018-12-22T16:20:13.051Z,1.20
2018-12-22T16:22:44.070Z,1.23
2018-12-22T16:25:12.726Z,1.50
2018-12-22T16:27:40.885Z,3.60
2018-12-22T16:30:17.707Z,2.13
2018-12-22T16:32:45.333Z,1.57
2018-12-22T16:35:12.781Z,1.40
2018-12-22T16:37:40.352Z,1.83
2018-12-22T16:40:10.973Z,1.57
2018-12-22T16:42:38.564Z,1.67
2018-12-22T16:45:11.500Z,1.50
2018-12-22T16:47:38.994Z,1.77
2018-12-22T16:50:10.251Z,1.30
2018-12-22T16:52:38.871Z,1.40
2018-12-22T16:55:10.417Z,1.47
2018-12-22T16:57:39.113Z,1.43
2018-12-22T17:00:18.214Z,1.70
2018-12-22T17:02:46.395Z,1.80
2018-12-22T17:05:13.860Z,1.53
2018-12-22T17:07:42.227Z,1.43
2018-12-22T17:10:09.777Z,1.50
2018-12-22T17:12:37.259Z,1.70
2018-12-22T17:15:10.429Z,1.60
2018-12-22T17:17:37.985Z,1.67
2018-12-22T17:20:09.370Z,1.80
2018-12-22T17:22:38.963Z,1.80
2018-12-22T17:25:10.255Z,2.03
2018-12-22T17:27:37.849Z,2.07
2018-12-22T17:30:06.836Z,2.57
2018-12-22T17:32:34.295Z,1.90
2018-12-22T17:35:01.779Z,1.87
2018-12-22T17:37:29.244Z,1.90
2018-12-22T17:39:56.718Z,1.70
2018-12-22T17:42:24.196Z,3.13
2018-12-22T17:44:51.715Z,2.30
2018-12-22T17:47:19.392Z,2.17
2018-12-22T17:49:46.872Z,2.20
2018-12-22T17:52:14.342Z,2.40
2018-12-22T17:54:41.822Z,2.70
2018-12-22T17:57:09.296Z,1.90
2018-12-22T17:59:36.804Z,1.97
2018-12-22T18:02:04.428Z,1.87
2018-12-22T18:04:32.029Z,1.70
2018-12-22T18:06:59.624Z,2.20
2018-12-22T18:09:27.070Z,2.23
2018-12-22T18:11:54.543Z,1.90
2018-12-22T18:14:22.020Z,2.10
2018-12-22T18:16:49.501Z,2.20
2018-12-22T18:19:16.970Z,2.07
2018-12-22T18:21:44.453Z,2.20
2018-12-22T18:24:12.509Z,2.50
2018-12-22T18:26:40.221Z,1.93
2018-12-22T18:29:07.680Z,2.40
2018-12-22T18:31:35.205Z,1.80
2018-12-22T18:34:03.299Z,2.10
2018-12-22T18:36:30.774Z,1.83
2018-12-22T18:38:58.361Z,1.70
2018-12-22T18:41:25.835Z,1.80
2018-12-22T18:43:53.297Z,1.90
2018-12-22T18:46:20.874Z,1.80
2018-12-22T18:48:48.350Z,1.80
2018-12-22T18:51:15.894Z,1.60
2018-12-22T18:53:43.367Z,2.33
2018-12-22T18:56:10.851Z,2.57
2018-12-22T18:58:38.962Z,1.60
2018-12-22T19:01:06.520Z,2.30
2018-12-22T19:03:33.988Z,1.97
2018-12-22T19:06:01.829Z,1.80
2018-12-22T19:08:29.443Z,1.73
2018-12-22T19:10:56.915Z,1.70
2018-12-22T19:13:24.488Z,1.70
2018-12-22T19:15:51.964Z,2.33
2018-12-22T19:18:19.454Z,1.90
2018-12-22T19:20:47.627Z,1.80
2018-12-22T19:23:15.155Z,2.00
2018-12-22T19:25:42.638Z,3.07
2018-12-22T19:31:41.845Z,3.17
2018-12-22T19:34:09.749Z,5.23
2018-12-22T19:36:37.243Z,2.60
2018-12-22T19:39:05.464Z,2.53
2018-12-22T19:41:33.292Z,2.00
2018-12-22T19:44:01.350Z,2.40
2018-12-22T19:46:28.836Z,2.00
2018-12-22T19:48:56.503Z,2.37
2018-12-22T19:51:23.959Z,2.90
2018-12-22T19:53:51.455Z,2.50
2018-12-22T19:56:18.910Z,2.27
2018-12-22T19:58:46.415Z,2.20
2018-12-22T20:01:13.891Z,2.47
2018-12-22T20:03:41.647Z,2.70
2018-12-22T20:06:09.130Z,3.03
2018-12-22T20:08:36.599Z,3.80
2018-12-22T20:11:04.055Z,2.63
2018-12-22T20:13:31.545Z,2.53
2018-12-22T20:15:59.027Z,2.70
2018-12-22T20:18:26.517Z,2.53
2018-12-22T20:20:53.993Z,3.00
2018-12-22T20:23:22.031Z,2.60
2018-12-22T20:25:49.508Z,2.63
2018-12-22T20:28:16.978Z,2.50
2018-12-22T20:30:44.468Z,2.37
2018-12-22T20:33:11.951Z,2.50
2018-12-22T20:35:39.827Z,3.17
2018-12-22T20:38:07.374Z,3.10
2018-12-22T20:40:35.283Z,3.10
2018-12-22T20:43:02.827Z,2.87
2018-12-22T20:45:30.324Z,2.33
2018-12-22T20:47:58.358Z,2.23
2018-12-22T20:50:25.919Z,2.63
2018-12-22T20:52:53.474Z,3.90
2018-12-22T20:55:21.077Z,5.03
2018-12-22T20:57:49.018Z,3.20
2018-12-22T21:00:16.489Z,3.33
2018-12-22T21:02:43.955Z,3.80
2018-12-22T21:05:11.859Z,2.97
2018-12-22T21:07:39.346Z,3.13
2018-12-22T21:10:06.810Z,3.40
2018-12-22T21:12:34.275Z,3.40
2018-12-22T21:15:02.433Z,3.27
2018-12-22T21:17:30.296Z,5.93
2018-12-22T21:19:58.194Z,4.90
2018-12-22T21:22:25.655Z,5.30
2018-12-22T21:24:53.114Z,3.13
2018-12-22T21:27:22.065Z,2.87
2018-12-22T21:29:49.986Z,2.60
2018-12-22T21:32:17.529Z,2.80
2018-12-22T21:34:45.061Z,2.13
2018-12-22T21:37:12.619Z,2.77
2018-12-22T21:39:40.074Z,2.43
2018-12-22T21:42:07.568Z,3.63
2018-12-22T21:44:35.055Z,2.87
2018-12-22T21:47:02.556Z,2.83
2018-12-22T21:49:30.022Z,2.37
2018-12-22T21:51:57.498Z,2.37
2018-12-22T21:54:25.014Z,9.87
2018-12-22T21:56:53.003Z,3.03
2018-12-22T21:59:20.494Z,2.63
2018-12-22T22:01:47.963Z,2.60
2018-12-22T22:04:15.445Z,2.70
2018-12-22T22:06:42.902Z,2.70
2018-12-22T22:09:10.365Z,2.73
2018-12-22T22:11:37.907Z,2.17
2018-12-22T22:14:05.488Z,2.40
2018-12-22T22:16:33.035Z,2.30
2018-12-22T22:19:00.544Z,2.27
2018-12-22T22:21:28.038Z,2.03
2018-12-22T22:23:55.537Z,2.40
2018-12-22T22:26:22.998Z,2.10
2018-12-22T22:28:51.095Z,3.97
2018-12-22T22:31:18.562Z,2.60
2018-12-22T22:33:46.035Z,2.47
2018-12-22T22:36:13.521Z,2.77
2018-12-22T22:38:41.048Z,2.20
2018-12-22T22:41:08.640Z,2.27
2018-12-22T22:43:36.299Z,2.40
2018-12-22T22:46:04.031Z,2.60
2018-12-22T22:48:31.603Z,2.30
2018-12-22T22:50:59.583Z,5.87
2018-12-22T22:53:27.084Z,7.03
2018-12-22T22:55:54.599Z,4.10
2018-12-22T22:58:22.153Z,3.23
2018-12-22T23:00:50.150Z,2.70
2018-12-22T23:03:17.635Z,2.80
2018-12-22T23:05:45.157Z,2.57
2018-12-22T23:08:13.128Z,2.63
2018-12-22T23:10:40.591Z,2.47
2018-12-22T23:13:08.079Z,2.57
2018-12-22T23:15:35.562Z,3.83
2018-12-22T23:18:03.046Z,4.07
2018-12-22T23:20:30.614Z,2.70
2018-12-22T23:22:58.082Z,2.30
2018-12-22T23:25:25.556Z,2.50
2018-12-22T23:27:53.045Z,2.20
2018-12-22T23:30:20.546Z,1.90
2018-12-22T23:32:48.003Z,2.27
2018-12-22T23:35:15.469Z,2.33
2018-12-22T23:37:43.017Z,2.40
2018-12-22T23:40:10.575Z,2.30
2018-12-22T23:42:38.029Z,2.70
2018-12-22T23:45:05.826Z,2.53
2018-12-22T23:47:33.414Z,2.70
2018-12-22T23:50:00.999Z,10.27
2018-12-22T23:52:28.442Z,4.57
2018-12-22T23:54:57.462Z,3.60
2018-12-22T23:57:24.913Z,2.40
2018-12-22T23:59:52.388Z,1.97
